Prathersville, Missouri
Current Conditions -  °F | °C
As of 5:54 PM on Friday 19 Dec 2014 (Local Time) from KCOU Reporting Station
Overcast Overcast  
Wind Chill: 30°   Ceiling: 1600
Heat Index: 35°   Visibility: 8mi
Dew Point: 32°   Wind: 6mph
Humidity: 89%   Direction: 110°ESE
Pressure: 30.23"   Gusts: NA
Location:  39.0235°N, 92.2896°W
Report Text: KCOU 192354Z 11005KT 8SM OVC016 02/00 A3023 RMK AO2 SLP242 T00170000 10028 20017 52000
Loading
Personal Weather Stations






























Interactive Weather Map New forecast layout! Learn more

10-Day Weather Forecast

Advertisements
Track Severe Weather on mobile